sensor_id;sensor_type;location;lat;lon;timestamp;P1;durP1;ratioP1;P2;durP2;ratioP2
20527;SDS011;23612;50.894;10.700;2023-02-23T00:01:18;17.17;;;10.10;;
20527;SDS011;23612;50.894;10.700;2023-02-23T00:03:46;17.52;;;10.25;;
20527;SDS011;23612;50.894;10.700;2023-02-23T00:06:14;15.25;;;9.90;;
20527;SDS011;23612;50.894;10.700;2023-02-23T00:08:40;14.43;;;8.88;;
20527;SDS011;23612;50.894;10.700;2023-02-23T00:11:07;14.15;;;9.93;;
20527;SDS011;23612;50.894;10.700;2023-02-23T00:13:37;12.10;;;8.85;;
20527;SDS011;23612;50.894;10.700;2023-02-23T00:16:05;12.13;;;8.60;;
20527;SDS011;23612;50.894;10.700;2023-02-23T00:18:30;14.20;;;9.02;;
20527;SDS011;23612;50.894;10.700;2023-02-23T00:21:05;11.32;;;8.73;;
20527;SDS011;23612;50.894;10.700;2023-02-23T00:23:30;13.00;;;9.15;;
20527;SDS011;23612;50.894;10.700;2023-02-23T00:25:56;15.63;;;9.40;;
20527;SDS011;23612;50.894;10.700;2023-02-23T00:28:23;17.83;;;8.77;;
20527;SDS011;23612;50.894;10.700;2023-02-23T00:30:48;10.68;;;8.43;;
20527;SDS011;23612;50.894;10.700;2023-02-23T00:33:14;14.90;;;9.00;;
20527;SDS011;23612;50.894;10.700;2023-02-23T00:35:40;16.45;;;8.43;;
20527;SDS011;23612;50.894;10.700;2023-02-23T00:38:06;10.60;;;8.90;;
20527;SDS011;23612;50.894;10.700;2023-02-23T00:40:32;10.07;;;8.05;;
20527;SDS011;23612;50.894;10.700;2023-02-23T00:42:57;12.70;;;8.60;;
20527;SDS011;23612;50.894;10.700;2023-02-23T00:45:23;11.40;;;8.48;;
20527;SDS011;23612;50.894;10.700;2023-02-23T00:47:48;12.98;;;9.07;;
20527;SDS011;23612;50.894;10.700;2023-02-23T00:50:15;13.05;;;9.35;;
20527;SDS011;23612;50.894;10.700;2023-02-23T00:52:42;14.93;;;8.75;;
20527;SDS011;23612;50.894;10.700;2023-02-23T00:55:09;13.35;;;8.60;;
20527;SDS011;23612;50.894;10.700;2023-02-23T00:57:36;18.15;;;9.40;;
20527;SDS011;23612;50.894;10.700;2023-02-23T01:00:06;12.68;;;8.68;;
20527;SDS011;23612;50.894;10.700;2023-02-23T01:02:45;13.80;;;8.85;;
20527;SDS011;23612;50.894;10.700;2023-02-23T01:05:12;14.45;;;9.13;;
20527;SDS011;23612;50.894;10.700;2023-02-23T01:07:38;14.27;;;8.63;;
20527;SDS011;23612;50.894;10.700;2023-02-23T01:10:04;13.93;;;9.32;;
20527;SDS011;23612;50.894;10.700;2023-02-23T01:12:47;15.00;;;9.55;;
20527;SDS011;23612;50.894;10.700;2023-02-23T01:15:13;13.13;;;10.05;;
20527;SDS011;23612;50.894;10.700;2023-02-23T01:17:39;18.70;;;10.65;;
20527;SDS011;23612;50.894;10.700;2023-02-23T01:20:05;18.88;;;10.75;;
20527;SDS011;23612;50.894;10.700;2023-02-23T01:22:46;16.95;;;10.60;;
20527;SDS011;23612;50.894;10.700;2023-02-23T01:25:14;15.70;;;10.35;;
20527;SDS011;23612;50.894;10.700;2023-02-23T01:27:40;17.77;;;11.02;;
20527;SDS011;23612;50.894;10.700;2023-02-23T01:30:08;15.07;;;10.30;;
20527;SDS011;23612;50.894;10.700;2023-02-23T01:32:35;22.75;;;9.98;;
20527;SDS011;23612;50.894;10.700;2023-02-23T01:35:06;14.80;;;9.98;;
20527;SDS011;23612;50.894;10.700;2023-02-23T01:37:33;13.35;;;9.77;;
20527;SDS011;23612;50.894;10.700;2023-02-23T01:40:00;16.27;;;10.65;;
20527;SDS011;23612;50.894;10.700;2023-02-23T01:42:31;12.40;;;9.43;;
20527;SDS011;23612;50.894;10.700;2023-02-23T01:45:15;14.93;;;9.90;;
20527;SDS011;23612;50.894;10.700;2023-02-23T01:47:51;15.80;;;10.20;;
20527;SDS011;23612;50.894;10.700;2023-02-23T01:50:23;14.52;;;9.82;;
20527;SDS011;23612;50.894;10.700;2023-02-23T01:52:50;18.50;;;10.48;;
20527;SDS011;23612;50.894;10.700;2023-02-23T01:55:16;15.77;;;9.80;;
20527;SDS011;23612;50.894;10.700;2023-02-23T01:57:56;13.70;;;9.60;;
20527;SDS011;23612;50.894;10.700;2023-02-23T02:00:28;13.38;;;10.07;;
20527;SDS011;23612;50.894;10.700;2023-02-23T02:02:55;13.43;;;9.30;;
20527;SDS011;23612;50.894;10.700;2023-02-23T02:05:22;12.25;;;9.25;;
20527;SDS011;23612;50.894;10.700;2023-02-23T02:07:49;15.85;;;10.05;;
20527;SDS011;23612;50.894;10.700;2023-02-23T02:10:22;15.05;;;10.40;;
20527;SDS011;23612;50.894;10.700;2023-02-23T02:13:03;16.08;;;11.48;;
20527;SDS011;23612;50.894;10.700;2023-02-23T02:15:31;18.00;;;12.10;;
20527;SDS011;23612;50.894;10.700;2023-02-23T02:18:25;19.92;;;11.82;;
20527;SDS011;23612;50.894;10.700;2023-02-23T02:21:23;16.67;;;11.50;;
20527;SDS011;23612;50.894;10.700;2023-02-23T02:33:03;18.88;;;11.57;;
20527;SDS011;23612;50.894;10.700;2023-02-23T02:41:11;14.48;;;10.88;;
20527;SDS011;23612;50.894;10.700;2023-02-23T02:43:47;15.50;;;10.95;;
20527;SDS011;23612;50.894;10.700;2023-02-23T02:46:26;20.20;;;12.23;;
20527;SDS011;23612;50.894;10.700;2023-02-23T02:51:52;20.05;;;12.48;;
20527;SDS011;23612;50.894;10.700;2023-02-23T02:54:27;17.83;;;12.43;;
20527;SDS011;23612;50.894;10.700;2023-02-23T02:57:02;20.90;;;13.45;;
20527;SDS011;23612;50.894;10.700;2023-02-23T02:59:29;20.25;;;13.35;;
20527;SDS011;23612;50.894;10.700;2023-02-23T03:02:21;18.63;;;12.80;;
20527;SDS011;23612;50.894;10.700;2023-02-23T03:05:11;21.33;;;13.45;;
20527;SDS011;23612;50.894;10.700;2023-02-23T03:20:21;20.35;;;12.60;;
20527;SDS011;23612;50.894;10.700;2023-02-23T03:23:23;19.70;;;12.27;;
20527;SDS011;23612;50.894;10.700;2023-02-23T03:26:10;18.52;;;12.10;;
20527;SDS011;23612;50.894;10.700;2023-02-23T03:29:19;17.67;;;11.82;;
20527;SDS011;23612;50.894;10.700;2023-02-23T03:32:18;18.80;;;12.05;;
20527;SDS011;23612;50.894;10.700;2023-02-23T03:35:11;17.63;;;11.95;;
20527;SDS011;23612;50.894;10.700;2023-02-23T03:38:09;19.60;;;12.50;;
20527;SDS011;23612;50.894;10.700;2023-02-23T03:41:09;19.65;;;12.43;;
20527;SDS011;23612;50.894;10.700;2023-02-23T03:43:57;19.98;;;12.90;;
20527;SDS011;23612;50.894;10.700;2023-02-23T03:46:44;22.60;;;12.85;;
20527;SDS011;23612;50.894;10.700;2023-02-23T03:49:32;22.13;;;12.70;;
20527;SDS011;23612;50.894;10.700;2023-02-23T03:52:20;22.88;;;12.57;;
20527;SDS011;23612;50.894;10.700;2023-02-23T03:55:20;23.08;;;12.77;;
20527;SDS011;23612;50.894;10.700;2023-02-23T03:58:10;19.48;;;12.40;;
20527;SDS011;23612;50.894;10.700;2023-02-23T04:00:57;20.17;;;13.52;;
20527;SDS011;23612;50.894;10.700;2023-02-23T04:03:45;21.30;;;12.98;;
20527;SDS011;23612;50.894;10.700;2023-02-23T04:06:34;25.33;;;14.32;;
20527;SDS011;23612;50.894;10.700;2023-02-23T04:09:23;25.45;;;15.43;;
20527;SDS011;23612;50.894;10.700;2023-02-23T04:12:11;27.88;;;17.23;;
20527;SDS011;23612;50.894;10.700;2023-02-23T04:15:14;28.88;;;14.98;;
20527;SDS011;23612;50.894;10.700;2023-02-23T04:17:48;25.38;;;15.07;;
20527;SDS011;23612;50.894;10.700;2023-02-23T04:20:14;22.73;;;15.25;;
20527;SDS011;23612;50.894;10.700;2023-02-23T04:22:40;26.42;;;15.60;;
20527;SDS011;23612;50.894;10.700;2023-02-23T04:25:05;27.38;;;16.80;;
20527;SDS011;23612;50.894;10.700;2023-02-23T04:27:32;30.35;;;17.67;;
20527;SDS011;23612;50.894;10.700;2023-02-23T04:29:59;28.58;;;17.20;;
20527;SDS011;23612;50.894;10.700;2023-02-23T04:32:25;29.88;;;17.60;;
20527;SDS011;23612;50.894;10.700;2023-02-23T04:34:50;29.70;;;17.25;;
20527;SDS011;23612;50.894;10.700;2023-02-23T04:37:16;28.52;;;17.00;;
20527;SDS011;23612;50.894;10.700;2023-02-23T04:39:41;33.42;;;17.02;;
20527;SDS011;23612;50.894;10.700;2023-02-23T04:42:12;31.05;;;17.92;;
20527;SDS011;23612;50.894;10.700;2023-02-23T04:44:38;29.67;;;17.75;;
20527;SDS011;23612;50.894;10.700;2023-02-23T04:47:03;26.52;;;16.45;;
20527;SDS011;23612;50.894;10.700;2023-02-23T04:49:29;25.80;;;16.55;;
20527;SDS011;23612;50.894;10.700;2023-02-23T04:51:54;29.27;;;16.55;;
20527;SDS011;23612;50.894;10.700;2023-02-23T04:54:20;29.23;;;17.30;;
20527;SDS011;23612;50.894;10.700;2023-02-23T04:56:45;30.15;;;17.20;;
20527;SDS011;23612;50.894;10.700;2023-02-23T04:59:11;24.05;;;15.43;;
20527;SDS011;23612;50.894;10.700;2023-02-23T05:01:37;24.67;;;15.38;;
20527;SDS011;23612;50.894;10.700;2023-02-23T05:04:02;25.42;;;14.73;;
20527;SDS011;23612;50.894;10.700;2023-02-23T05:06:28;27.58;;;15.55;;
20527;SDS011;23612;50.894;10.700;2023-02-23T05:08:54;25.83;;;16.45;;
20527;SDS011;23612;50.894;10.700;2023-02-23T05:11:20;27.63;;;15.43;;
20527;SDS011;23612;50.894;10.700;2023-02-23T05:13:45;25.85;;;15.90;;
20527;SDS011;23612;50.894;10.700;2023-02-23T05:16:11;26.15;;;16.35;;
20527;SDS011;23612;50.894;10.700;2023-02-23T05:18:36;34.00;;;19.80;;
20527;SDS011;23612;50.894;10.700;2023-02-23T05:21:05;36.03;;;21.42;;
20527;SDS011;23612;50.894;10.700;2023-02-23T05:23:32;33.72;;;19.02;;
20527;SDS011;23612;50.894;10.700;2023-02-23T05:26:02;28.90;;;18.45;;
20527;SDS011;23612;50.894;10.700;2023-02-23T05:28:31;29.83;;;18.50;;
20527;SDS011;23612;50.894;10.700;2023-02-23T05:30:58;31.73;;;18.73;;
20527;SDS011;23612;50.894;10.700;2023-02-23T05:33:24;27.63;;;17.15;;
20527;SDS011;23612;50.894;10.700;2023-02-23T05:35:49;27.92;;;17.08;;
20527;SDS011;23612;50.894;10.700;2023-02-23T05:38:15;62.92;;;44.25;;
20527;SDS011;23612;50.894;10.700;2023-02-23T05:40:40;30.27;;;17.92;;
20527;SDS011;23612;50.894;10.700;2023-02-23T05:43:06;24.27;;;15.45;;
20527;SDS011;23612;50.894;10.700;2023-02-23T05:45:31;27.55;;;15.35;;
20527;SDS011;23612;50.894;10.700;2023-02-23T05:47:57;27.55;;;16.10;;
20527;SDS011;23612;50.894;10.700;2023-02-23T05:50:23;22.10;;;15.10;;
20527;SDS011;23612;50.894;10.700;2023-02-23T05:52:49;24.23;;;15.00;;
20527;SDS011;23612;50.894;10.700;2023-02-23T05:55:14;21.20;;;14.98;;
20527;SDS011;23612;50.894;10.700;2023-02-23T05:57:40;24.40;;;14.93;;
20527;SDS011;23612;50.894;10.700;2023-02-23T06:00:05;29.83;;;17.13;;
20527;SDS011;23612;50.894;10.700;2023-02-23T06:02:32;27.92;;;17.55;;
20527;SDS011;23612;50.894;10.700;2023-02-23T06:04:58;28.15;;;17.02;;
20527;SDS011;23612;50.894;10.700;2023-02-23T06:07:24;32.28;;;20.08;;
20527;SDS011;23612;50.894;10.700;2023-02-23T06:09:50;53.67;;;27.92;;
20527;SDS011;23612;50.894;10.700;2023-02-23T06:12:15;53.15;;;28.95;;
20527;SDS011;23612;50.894;10.700;2023-02-23T06:14:41;57.08;;;28.50;;
20527;SDS011;23612;50.894;10.700;2023-02-23T06:17:06;50.17;;;28.48;;
20527;SDS011;23612;50.894;10.700;2023-02-23T06:19:32;47.97;;;28.48;;
20527;SDS011;23612;50.894;10.700;2023-02-23T06:21:58;55.08;;;31.88;;
20527;SDS011;23612;50.894;10.700;2023-02-23T06:24:23;66.25;;;39.25;;
20527;SDS011;23612;50.894;10.700;2023-02-23T06:26:49;53.60;;;31.55;;
20527;SDS011;23612;50.894;10.700;2023-02-23T06:29:15;40.22;;;26.05;;
20527;SDS011;23612;50.894;10.700;2023-02-23T06:31:41;32.50;;;21.25;;
20527;SDS011;23612;50.894;10.700;2023-02-23T06:34:07;30.30;;;18.98;;
20527;SDS011;23612;50.894;10.700;2023-02-23T06:36:33;33.58;;;19.52;;
20527;SDS011;23612;50.894;10.700;2023-02-23T06:38:59;36.47;;;20.80;;
20527;SDS011;23612;50.894;10.700;2023-02-23T06:41:24;33.20;;;20.67;;
20527;SDS011;23612;50.894;10.700;2023-02-23T06:43:50;35.92;;;19.95;;
20527;SDS011;23612;50.894;10.700;2023-02-23T06:46:16;41.95;;;22.65;;
20527;SDS011;23612;50.894;10.700;2023-02-23T06:48:42;38.25;;;23.63;;
20527;SDS011;23612;50.894;10.700;2023-02-23T06:51:08;41.08;;;22.83;;
20527;SDS011;23612;50.894;10.700;2023-02-23T06:53:34;43.97;;;26.27;;
20527;SDS011;23612;50.894;10.700;2023-02-23T06:56:00;51.65;;;29.48;;
20527;SDS011;23612;50.894;10.700;2023-02-23T06:58:26;53.22;;;31.85;;
20527;SDS011;23612;50.894;10.700;2023-02-23T07:00:53;58.08;;;35.40;;
20527;SDS011;23612;50.894;10.700;2023-02-23T07:03:20;58.00;;;35.83;;
20527;SDS011;23612;50.894;10.700;2023-02-23T07:05:47;46.20;;;29.23;;
20527;SDS011;23612;50.894;10.700;2023-02-23T07:08:14;58.70;;;33.63;;
20527;SDS011;23612;50.894;10.700;2023-02-23T07:10:40;59.03;;;33.38;;
20527;SDS011;23612;50.894;10.700;2023-02-23T07:13:06;53.42;;;32.10;;
20527;SDS011;23612;50.894;10.700;2023-02-23T07:15:32;51.65;;;28.65;;
20527;SDS011;23612;50.894;10.700;2023-02-23T07:17:59;43.72;;;26.55;;
20527;SDS011;23612;50.894;10.700;2023-02-23T07:20:25;43.13;;;26.30;;
20527;SDS011;23612;50.894;10.700;2023-02-23T07:22:51;47.83;;;30.98;;
20527;SDS011;23612;50.894;10.700;2023-02-23T07:25:16;39.53;;;26.73;;
20527;SDS011;23612;50.894;10.700;2023-02-23T07:27:42;40.80;;;26.70;;
20527;SDS011;23612;50.894;10.700;2023-02-23T07:30:09;38.17;;;24.05;;
20527;SDS011;23612;50.894;10.700;2023-02-23T07:32:35;33.63;;;21.20;;
20527;SDS011;23612;50.894;10.700;2023-02-23T07:35:01;35.05;;;20.20;;
20527;SDS011;23612;50.894;10.700;2023-02-23T07:37:27;33.30;;;20.35;;
20527;SDS011;23612;50.894;10.700;2023-02-23T07:39:53;31.98;;;19.58;;
20527;SDS011;23612;50.894;10.700;2023-02-23T07:42:18;33.20;;;21.13;;
20527;SDS011;23612;50.894;10.700;2023-02-23T07:44:44;29.25;;;20.05;;
20527;SDS011;23612;50.894;10.700;2023-02-23T07:47:11;46.08;;;26.90;;
20527;SDS011;23612;50.894;10.700;2023-02-23T07:49:37;43.17;;;23.92;;
20527;SDS011;23612;50.894;10.700;2023-02-23T07:52:02;40.90;;;23.23;;
20527;SDS011;23612;50.894;10.700;2023-02-23T07:54:28;51.35;;;28.15;;
20527;SDS011;23612;50.894;10.700;2023-02-23T07:56:54;54.85;;;30.02;;
20527;SDS011;23612;50.894;10.700;2023-02-23T07:59:20;109.53;;;51.83;;
20527;SDS011;23612;50.894;10.700;2023-02-23T08:01:45;90.45;;;43.53;;
20527;SDS011;23612;50.894;10.700;2023-02-23T08:04:11;44.53;;;27.40;;
20527;SDS011;23612;50.894;10.700;2023-02-23T08:06:37;83.60;;;45.03;;
20527;SDS011;23612;50.894;10.700;2023-02-23T08:09:02;73.47;;;41.60;;
20527;SDS011;23612;50.894;10.700;2023-02-23T08:11:29;59.03;;;34.88;;
20527;SDS011;23612;50.894;10.700;2023-02-23T08:13:55;47.08;;;28.52;;
20527;SDS011;23612;50.894;10.700;2023-02-23T08:16:24;44.72;;;26.50;;
20527;SDS011;23612;50.894;10.700;2023-02-23T08:18:51;40.03;;;25.50;;
20527;SDS011;23612;50.894;10.700;2023-02-23T08:21:16;39.67;;;22.63;;
20527;SDS011;23612;50.894;10.700;2023-02-23T08:23:42;38.47;;;23.15;;
20527;SDS011;23612;50.894;10.700;2023-02-23T08:26:08;35.53;;;23.38;;
20527;SDS011;23612;50.894;10.700;2023-02-23T08:28:34;36.58;;;22.77;;
20527;SDS011;23612;50.894;10.700;2023-02-23T08:30:59;39.90;;;23.23;;
20527;SDS011;23612;50.894;10.700;2023-02-23T08:33:25;36.55;;;20.75;;
20527;SDS011;23612;50.894;10.700;2023-02-23T08:35:50;39.08;;;22.25;;
20527;SDS011;23612;50.894;10.700;2023-02-23T08:38:17;38.90;;;23.02;;
20527;SDS011;23612;50.894;10.700;2023-02-23T08:40:43;40.47;;;23.88;;
20527;SDS011;23612;50.894;10.700;2023-02-23T08:43:08;42.17;;;26.58;;
20527;SDS011;23612;50.894;10.700;2023-02-23T08:45:34;40.95;;;25.80;;
20527;SDS011;23612;50.894;10.700;2023-02-23T08:48:01;39.70;;;23.42;;
20527;SDS011;23612;50.894;10.700;2023-02-23T08:50:27;38.92;;;23.73;;
20527;SDS011;23612;50.894;10.700;2023-02-23T08:52:52;40.33;;;25.60;;
20527;SDS011;23612;50.894;10.700;2023-02-23T08:55:18;40.13;;;24.83;;
20527;SDS011;23612;50.894;10.700;2023-02-23T08:57:45;41.13;;;24.48;;
20527;SDS011;23612;50.894;10.700;2023-02-23T09:00:11;43.25;;;25.52;;
20527;SDS011;23612;50.894;10.700;2023-02-23T09:02:40;48.58;;;28.65;;
20527;SDS011;23612;50.894;10.700;2023-02-23T09:05:07;45.90;;;28.48;;
20527;SDS011;23612;50.894;10.700;2023-02-23T09:07:33;64.85;;;33.38;;
20527;SDS011;23612;50.894;10.700;2023-02-23T09:09:59;60.55;;;31.90;;
20527;SDS011;23612;50.894;10.700;2023-02-23T09:12:24;54.90;;;31.90;;
20527;SDS011;23612;50.894;10.700;2023-02-23T09:14:50;58.95;;;32.30;;
20527;SDS011;23612;50.894;10.700;2023-02-23T09:17:17;54.75;;;30.70;;
20527;SDS011;23612;50.894;10.700;2023-02-23T09:19:44;61.90;;;34.40;;
20527;SDS011;23612;50.894;10.700;2023-02-23T09:22:09;58.75;;;33.35;;
20527;SDS011;23612;50.894;10.700;2023-02-23T09:24:35;59.70;;;34.15;;
20527;SDS011;23612;50.894;10.700;2023-02-23T09:27:02;58.97;;;33.95;;
20527;SDS011;23612;50.894;10.700;2023-02-23T09:29:28;60.38;;;34.33;;
20527;SDS011;23612;50.894;10.700;2023-02-23T09:31:54;58.20;;;32.03;;
20527;SDS011;23612;50.894;10.700;2023-02-23T09:34:21;50.72;;;32.15;;
20527;SDS011;23612;50.894;10.700;2023-02-23T09:36:46;63.33;;;32.33;;
20527;SDS011;23612;50.894;10.700;2023-02-23T09:39:12;56.10;;;33.00;;
20527;SDS011;23612;50.894;10.700;2023-02-23T09:47:36;62.97;;;32.05;;
20527;SDS011;23612;50.894;10.700;2023-02-23T09:50:13;50.28;;;29.27;;
20527;SDS011;23612;50.894;10.700;2023-02-23T09:52:55;52.65;;;31.00;;
20527;SDS011;23612;50.894;10.700;2023-02-23T09:55:37;60.53;;;30.98;;
20527;SDS011;23612;50.894;10.700;2023-02-23T09:58:07;51.70;;;30.90;;
20527;SDS011;23612;50.894;10.700;2023-02-23T10:07:12;52.03;;;29.90;;
20527;SDS011;23612;50.894;10.700;2023-02-23T10:09:57;48.47;;;28.63;;
20527;SDS011;23612;50.894;10.700;2023-02-23T10:12:53;52.63;;;29.17;;
20527;SDS011;23612;50.894;10.700;2023-02-23T10:23:35;53.03;;;29.25;;
20527;SDS011;23612;50.894;10.700;2023-02-23T10:26:20;45.00;;;28.00;;
20527;SDS011;23612;50.894;10.700;2023-02-23T10:28:48;52.13;;;29.95;;
20527;SDS011;23612;50.894;10.700;2023-02-23T10:34:02;48.38;;;27.80;;
20527;SDS011;23612;50.894;10.700;2023-02-23T10:36:33;80.35;;;39.30;;
20527;SDS011;23612;50.894;10.700;2023-02-23T10:39:01;49.88;;;27.83;;
20527;SDS011;23612;50.894;10.700;2023-02-23T10:41:30;49.00;;;27.95;;
20527;SDS011;23612;50.894;10.700;2023-02-23T10:43:55;50.72;;;27.48;;
20527;SDS011;23612;50.894;10.700;2023-02-23T10:46:22;47.92;;;28.00;;
20527;SDS011;23612;50.894;10.700;2023-02-23T10:48:53;54.17;;;26.65;;
20527;SDS011;23612;50.894;10.700;2023-02-23T10:51:23;151.88;;;72.38;;
20527;SDS011;23612;50.894;10.700;2023-02-23T10:53:52;51.22;;;28.42;;
20527;SDS011;23612;50.894;10.700;2023-02-23T10:56:18;49.20;;;26.80;;
20527;SDS011;23612;50.894;10.700;2023-02-23T10:58:50;49.67;;;26.35;;
20527;SDS011;23612;50.894;10.700;2023-02-23T11:01:35;51.83;;;29.05;;
20527;SDS011;23612;50.894;10.700;2023-02-23T11:04:20;51.28;;;27.13;;
20527;SDS011;23612;50.894;10.700;2023-02-23T11:06:47;54.15;;;28.83;;
20527;SDS011;23612;50.894;10.700;2023-02-23T11:09:25;46.55;;;27.02;;
20527;SDS011;23612;50.894;10.700;2023-02-23T11:14:29;48.42;;;26.60;;
20527;SDS011;23612;50.894;10.700;2023-02-23T11:16:56;51.20;;;27.83;;
20527;SDS011;23612;50.894;10.700;2023-02-23T11:19:32;45.05;;;26.38;;
20527;SDS011;23612;50.894;10.700;2023-02-23T11:21:59;320.33;;;94.63;;
20527;SDS011;23612;50.894;10.700;2023-02-23T11:24:26;46.95;;;27.52;;
20527;SDS011;23612;50.894;10.700;2023-02-23T11:26:57;44.15;;;25.08;;
20527;SDS011;23612;50.894;10.700;2023-02-23T11:29:37;49.60;;;25.17;;
20527;SDS011;23612;50.894;10.700;2023-02-23T11:32:25;41.95;;;24.35;;
20527;SDS011;23612;50.894;10.700;2023-02-23T11:37:56;47.20;;;24.80;;
20527;SDS011;23612;50.894;10.700;2023-02-23T11:42:52;53.38;;;26.80;;
20527;SDS011;23612;50.894;10.700;2023-02-23T11:45:19;51.83;;;27.85;;
20527;SDS011;23612;50.894;10.700;2023-02-23T11:47:48;52.53;;;28.58;;
20527;SDS011;23612;50.894;10.700;2023-02-23T11:53:00;37.60;;;22.67;;
20527;SDS011;23612;50.894;10.700;2023-02-23T11:55:29;42.13;;;23.63;;
20527;SDS011;23612;50.894;10.700;2023-02-23T11:58:10;39.60;;;24.50;;
20527;SDS011;23612;50.894;10.700;2023-02-23T12:01:04;40.67;;;23.42;;
20527;SDS011;23612;50.894;10.700;2023-02-23T12:03:47;44.50;;;22.67;;
20527;SDS011;23612;50.894;10.700;2023-02-23T12:06:27;65.35;;;35.63;;
20527;SDS011;23612;50.894;10.700;2023-02-23T12:08:57;73.28;;;43.05;;
20527;SDS011;23612;50.894;10.700;2023-02-23T12:12:03;57.75;;;34.00;;
20527;SDS011;23612;50.894;10.700;2023-02-23T12:17:38;175.25;;;70.80;;
20527;SDS011;23612;50.894;10.700;2023-02-23T12:20:26;46.20;;;26.00;;
20527;SDS011;23612;50.894;10.700;2023-02-23T12:23:00;42.70;;;25.70;;
20527;SDS011;23612;50.894;10.700;2023-02-23T12:25:34;43.20;;;23.70;;
20527;SDS011;23612;50.894;10.700;2023-02-23T12:28:16;35.83;;;22.98;;
20527;SDS011;23612;50.894;10.700;2023-02-23T12:31:03;43.17;;;25.35;;
20527;SDS011;23612;50.894;10.700;2023-02-23T12:33:47;36.20;;;21.38;;
20527;SDS011;23612;50.894;10.700;2023-02-23T12:36:26;32.67;;;20.73;;
20527;SDS011;23612;50.894;10.700;2023-02-23T12:38:59;34.47;;;21.13;;
20527;SDS011;23612;50.894;10.700;2023-02-23T12:44:07;32.60;;;19.70;;
20527;SDS011;23612;50.894;10.700;2023-02-23T12:46:54;35.65;;;19.48;;
20527;SDS011;23612;50.894;10.700;2023-02-23T12:49:38;34.80;;;20.10;;
20527;SDS011;23612;50.894;10.700;2023-02-23T12:52:16;36.78;;;20.75;;
20527;SDS011;23612;50.894;10.700;2023-02-23T12:54:46;40.80;;;24.00;;
20527;SDS011;23612;50.894;10.700;2023-02-23T13:06:00;32.10;;;19.13;;
20527;SDS011;23612;50.894;10.700;2023-02-23T13:11:26;30.33;;;18.27;;
20527;SDS011;23612;50.894;10.700;2023-02-23T13:16:54;28.67;;;15.02;;
20527;SDS011;23612;50.894;10.700;2023-02-23T13:19:36;17.67;;;11.25;;
20527;SDS011;23612;50.894;10.700;2023-02-23T13:24:58;23.45;;;11.05;;
20527;SDS011;23612;50.894;10.700;2023-02-23T13:27:33;20.65;;;10.25;;
20527;SDS011;23612;50.894;10.700;2023-02-23T13:30:01;19.77;;;11.55;;
20527;SDS011;23612;50.894;10.700;2023-02-23T13:32:28;21.15;;;11.60;;
20527;SDS011;23612;50.894;10.700;2023-02-23T13:35:03;24.40;;;12.80;;
20527;SDS011;23612;50.894;10.700;2023-02-23T13:37:40;23.17;;;13.40;;
20527;SDS011;23612;50.894;10.700;2023-02-23T13:51:36;23.60;;;12.82;;
20527;SDS011;23612;50.894;10.700;2023-02-23T13:56:41;25.92;;;12.68;;
20527;SDS011;23612;50.894;10.700;2023-02-23T13:59:18;26.27;;;11.90;;
20527;SDS011;23612;50.894;10.700;2023-02-23T14:01:50;23.17;;;13.20;;
20527;SDS011;23612;50.894;10.700;2023-02-23T14:04:27;21.02;;;11.95;;
20527;SDS011;23612;50.894;10.700;2023-02-23T14:09:34;20.42;;;12.13;;
20527;SDS011;23612;50.894;10.700;2023-02-23T14:14:43;22.00;;;11.45;;
20527;SDS011;23612;50.894;10.700;2023-02-23T14:22:29;17.52;;;10.98;;
20527;SDS011;23612;50.894;10.700;2023-02-23T14:25:40;18.00;;;11.60;;
20527;SDS011;23612;50.894;10.700;2023-02-23T14:27:59;28.02;;;15.18;;
20527;SDS011;23612;50.894;10.700;2023-02-23T14:30:46;30.63;;;16.05;;
20527;SDS011;23612;50.894;10.700;2023-02-23T14:41:25;18.23;;;10.77;;
20527;SDS011;23612;50.894;10.700;2023-02-23T14:43:54;21.45;;;11.40;;
20527;SDS011;23612;50.894;10.700;2023-02-23T14:46:53;18.67;;;11.82;;
20527;SDS011;23612;50.894;10.700;2023-02-23T14:49:25;23.95;;;12.98;;
20527;SDS011;23612;50.894;10.700;2023-02-23T14:51:52;18.38;;;11.43;;
20527;SDS011;23612;50.894;10.700;2023-02-23T14:54:21;19.13;;;12.20;;
20527;SDS011;23612;50.894;10.700;2023-02-23T14:56:50;20.15;;;11.75;;
20527;SDS011;23612;50.894;10.700;2023-02-23T14:59:22;19.13;;;11.85;;
20527;SDS011;23612;50.894;10.700;2023-02-23T15:01:50;17.80;;;11.48;;
20527;SDS011;23612;50.894;10.700;2023-02-23T15:04:21;22.42;;;11.95;;
20527;SDS011;23612;50.894;10.700;2023-02-23T15:06:51;24.55;;;12.75;;
20527;SDS011;23612;50.894;10.700;2023-02-23T15:09:38;20.90;;;12.73;;
20527;SDS011;23612;50.894;10.700;2023-02-23T15:12:13;26.88;;;13.88;;
20527;SDS011;23612;50.894;10.700;2023-02-23T15:14:43;23.05;;;14.07;;
20527;SDS011;23612;50.894;10.700;2023-02-23T15:17:13;22.42;;;13.57;;
20527;SDS011;23612;50.894;10.700;2023-02-23T15:19:42;40.45;;;20.42;;
20527;SDS011;23612;50.894;10.700;2023-02-23T15:22:13;68.32;;;30.95;;
20527;SDS011;23612;50.894;10.700;2023-02-23T15:24:47;27.08;;;16.48;;
20527;SDS011;23612;50.894;10.700;2023-02-23T15:27:18;26.40;;;14.80;;
20527;SDS011;23612;50.894;10.700;2023-02-23T15:29:50;24.75;;;14.95;;
20527;SDS011;23612;50.894;10.700;2023-02-23T15:32:17;24.92;;;15.20;;
20527;SDS011;23612;50.894;10.700;2023-02-23T15:34:49;26.95;;;14.98;;
20527;SDS011;23612;50.894;10.700;2023-02-23T15:37:25;21.23;;;12.90;;
20527;SDS011;23612;50.894;10.700;2023-02-23T15:40:05;20.50;;;12.93;;
20527;SDS011;23612;50.894;10.700;2023-02-23T15:42:40;23.65;;;12.10;;
20527;SDS011;23612;50.894;10.700;2023-02-23T15:48:14;22.92;;;13.88;;
20527;SDS011;23612;50.894;10.700;2023-02-23T15:50:49;24.48;;;15.70;;
20527;SDS011;23612;50.894;10.700;2023-02-23T15:56:22;32.47;;;18.88;;
20527;SDS011;23612;50.894;10.700;2023-02-23T15:58:57;32.22;;;19.50;;
20527;SDS011;23612;50.894;10.700;2023-02-23T16:01:28;29.52;;;17.50;;
20527;SDS011;23612;50.894;10.700;2023-02-23T16:06:22;29.92;;;17.73;;
20527;SDS011;23612;50.894;10.700;2023-02-23T16:08:57;36.83;;;18.70;;
20527;SDS011;23612;50.894;10.700;2023-02-23T16:11:50;32.13;;;19.85;;
20527;SDS011;23612;50.894;10.700;2023-02-23T16:14:31;32.60;;;18.38;;
20527;SDS011;23612;50.894;10.700;2023-02-23T16:16:59;25.67;;;15.50;;
20527;SDS011;23612;50.894;10.700;2023-02-23T16:19:26;28.88;;;17.00;;
20527;SDS011;23612;50.894;10.700;2023-02-23T16:21:54;38.00;;;21.10;;
20527;SDS011;23612;50.894;10.700;2023-02-23T16:24:22;54.80;;;28.42;;
20527;SDS011;23612;50.894;10.700;2023-02-23T16:26:53;38.25;;;22.02;;
20527;SDS011;23612;50.894;10.700;2023-02-23T16:29:31;28.83;;;18.13;;
20527;SDS011;23612;50.894;10.700;2023-02-23T16:32:09;28.13;;;17.40;;
20527;SDS011;23612;50.894;10.700;2023-02-23T16:34:50;26.15;;;15.20;;
20527;SDS011;23612;50.894;10.700;2023-02-23T16:37:20;21.20;;;12.52;;
20527;SDS011;23612;50.894;10.700;2023-02-23T16:39:49;16.63;;;10.32;;
20527;SDS011;23612;50.894;10.700;2023-02-23T16:44:49;23.77;;;14.63;;
20527;SDS011;23612;50.894;10.700;2023-02-23T16:49:46;20.30;;;13.07;;